Time;durP1;ratioP1;P1;durP2;ratioP2;P2;SDS_P1;SDS_P2;PMS_P1;PMS_P2;Temp;Humidity;BMP_temperature;BMP_pressure;BME280_temperature;BME280_humidity;BME280_pressure;Samples;Min_cycle;Max_cycle;Signal;HPM_P1;HPM_P2
2023/12/06 00:01:02;;;;;;;80.03;37.95;;;;;;;-0.08;100.00;100435.00;7402703;19;20014;-64
2023/12/06 00:03:31;;;;;;;77.15;38.58;;;;;;;-0.07;100.00;100428.16;7400359;19;20367;-64
2023/12/06 00:05:59;;;;;;;75.85;38.42;;;;;;;-0.06;100.00;100432.47;7398913;19;20007;-65
2023/12/06 00:08:27;;;;;;;81.05;38.15;;;;;;;-0.05;100.00;100426.47;7399167;19;20010;-63
2023/12/06 00:10:57;;;;;;;82.13;37.78;;;;;;;-0.05;100.00;100424.75;7401534;19;20439;-65
2023/12/06 00:13:26;;;;;;;79.65;37.92;;;;;;;-0.03;100.00;100429.94;7398786;19;20031;-63
2023/12/06 00:15:57;;;;;;;77.28;38.03;;;;;;;-0.03;100.00;100427.34;7401444;19;20101;-64
2023/12/06 00:18:26;;;;;;;74.38;37.58;;;;;;;-0.03;100.00;100425.63;7402037;19;20403;-64
2023/12/06 00:20:54;;;;;;;79.32;39.38;;;;;;;-0.02;100.00;100429.09;7398936;19;20015;-62
2023/12/06 00:23:23;;;;;;;80.07;38.08;;;;;;;-0.02;100.00;100423.94;7399915;19;20481;-63
2023/12/06 00:25:51;;;;;;;78.20;37.95;;;;;;;-0.03;100.00;100425.63;7400951;19;20028;-63
2023/12/06 00:28:20;;;;;;;74.03;38.17;;;;;;;-0.02;100.00;100431.69;7398554;19;20031;-62
2023/12/06 00:30:48;;;;;;;80.28;37.85;;;;;;;-0.02;100.00;100429.09;7400896;19;20006;-63
2023/12/06 00:33:19;;;;;;;74.93;36.17;;;;;;;-0.02;100.00;100434.25;7400001;19;20031;-63
2023/12/06 00:35:48;;;;;;;71.95;34.30;;;;;;;-0.01;100.00;100430.84;7397708;19;20066;-63
2023/12/06 00:38:16;;;;;;;79.13;34.88;;;;;;;0.00;100.00;100430.00;7401323;19;20018;-64
2023/12/06 00:40:45;;;;;;;77.15;37.88;;;;;;;0.00;100.00;100430.00;7397990;19;20011;-63
2023/12/06 00:43:13;;;;;;;74.65;37.17;;;;;;;0.02;100.00;100437.75;7398161;19;20018;-63
2023/12/06 00:45:42;;;;;;;79.90;37.72;;;;;;;0.03;100.00;100442.09;7400371;19;20015;-63
2023/12/06 00:48:10;;;;;;;70.68;36.15;;;;;;;0.03;100.00;100439.50;7400612;19;20078;-63
2023/12/06 00:50:42;;;;;;;75.15;36.13;;;;;;;0.03;100.00;100442.94;7398201;19;20032;-63
2023/12/06 00:53:10;;;;;;;77.97;38.67;;;;;;;0.03;100.00;100440.34;7400015;19;20014;-63
2023/12/06 00:55:39;;;;;;;81.40;38.17;;;;;;;0.04;100.00;100444.69;7397931;19;20018;-64
2023/12/06 00:58:08;;;;;;;75.93;36.97;;;;;;;0.04;100.00;100443.78;7399970;19;20079;-63
2023/12/06 01:00:36;;;;;;;76.20;37.80;;;;;;;0.04;100.00;100451.53;7397835;19;20078;-64
2023/12/06 01:03:05;;;;;;;76.05;36.45;;;;;;;0.04;100.00;100455.00;7399063;19;20343;-64
2023/12/06 01:05:33;;;;;;;74.05;35.50;;;;;;;0.05;100.00;100453.28;7400191;19;20028;-64
2023/12/06 01:08:04;;;;;;;77.57;37.88;;;;;;;0.05;100.00;100453.28;7399617;19;20006;-65
2023/12/06 01:10:32;;;;;;;79.53;36.47;;;;;;;0.04;100.00;100452.41;7399682;19;20496;-64
2023/12/06 01:13:01;;;;;;;76.95;35.85;;;;;;;0.04;100.00;100449.84;7398757;19;20023;-63
2023/12/06 01:15:29;;;;;;;80.30;36.40;;;;;;;0.04;100.00;100452.41;7397437;19;20256;-64
2023/12/06 01:17:58;;;;;;;79.57;38.35;;;;;;;0.03;100.00;100450.69;7399637;19;20018;-63
2023/12/06 01:20:26;;;;;;;76.93;36.78;;;;;;;0.04;100.00;100451.53;7396942;19;20097;-63
2023/12/06 01:22:55;;;;;;;75.15;36.97;;;;;;;0.03;100.00;100450.69;7398875;19;20019;-63
2023/12/06 01:25:26;;;;;;;77.40;36.85;;;;;;;0.02;100.00;100448.94;7399462;19;20023;-63
2023/12/06 01:27:54;;;;;;;81.57;38.38;;;;;;;0.02;100.00;100448.94;7399746;19;20090;-63
2023/12/06 01:30:23;;;;;;;85.55;39.17;;;;;;;0.03;100.00;100463.56;7398847;19;20020;-64
2023/12/06 01:32:51;;;;;;;80.97;38.25;;;;;;;0.03;100.00;100454.97;7398773;19;20082;-66
2023/12/06 01:35:20;;;;;;;72.25;35.25;;;;;;;0.01;100.00;100465.25;7397198;19;20039;-64
2023/12/06 01:37:48;;;;;;;76.57;36.17;;;;;;;0.03;100.00;100466.16;7397134;19;20094;-64
2023/12/06 01:40:17;;;;;;;77.28;36.67;;;;;;;0.03;100.00;100462.72;7396499;19;20376;-64
2023/12/06 01:42:49;;;;;;;76.32;37.97;;;;;;;0.04;100.00;100467.00;7398135;19;20528;-64
2023/12/06 01:45:18;;;;;;;76.70;37.97;;;;;;;0.03;100.00;100466.16;7397083;19;20021;-64
2023/12/06 01:47:48;;;;;;;71.03;35.38;;;;;;;0.04;100.00;100465.31;7396218;19;20007;-64
2023/12/06 01:50:17;;;;;;;77.43;36.72;;;;;;;0.04;100.00;100474.75;7396217;19;20434;-64
2023/12/06 01:52:46;;;;;;;79.00;35.92;;;;;;;0.04;100.00;100472.16;7397759;19;20440;-64
2023/12/06 01:55:15;;;;;;;81.50;35.22;;;;;;;0.03;100.00;100471.31;7397014;19;20020;-64
2023/12/06 01:57:45;;;;;;;84.15;36.50;;;;;;;0.05;100.00;100468.75;7398493;19;20027;-64
2023/12/06 02:00:17;;;;;;;79.63;36.65;;;;;;;0.05;100.00;100468.75;7396709;19;20082;-64
2023/12/06 02:02:47;;;;;;;78.15;35.42;;;;;;;0.05;100.00;100463.59;7397347;19;20504;-64
2023/12/06 02:05:16;;;;;;;81.55;38.47;;;;;;;0.05;100.00;100468.75;7396179;19;20018;-64
2023/12/06 02:07:45;;;;;;;85.68;37.15;;;;;;;0.05;100.00;100463.59;7397928;19;20078;-63
2023/12/06 02:10:15;;;;;;;82.43;37.47;;;;;;;0.05;100.00;100454.16;7397964;19;20073;-64
2023/12/06 02:12:43;;;;;;;84.97;37.55;;;;;;;0.06;100.00;100460.19;7397462;19;20015;-63
2023/12/06 02:15:21;;;;;;;80.00;38.80;;;;;;;0.05;100.00;100451.59;7395365;19;20428;-63
2023/12/06 02:17:52;;;;;;;85.97;35.63;;;;;;;0.05;100.00;100463.59;7398117;19;20375;-64
2023/12/06 02:20:21;;;;;;;79.97;36.90;;;;;;;0.06;100.00;100455.03;7395374;19;20406;-63
2023/12/06 02:22:52;;;;;;;87.72;39.15;;;;;;;0.05;100.00;100449.00;7397097;19;20066;-64
2023/12/06 02:25:23;;;;;;;82.78;38.45;;;;;;;0.06;100.00;100458.44;7397127;19;20010;-63
2023/12/06 02:27:51;;;;;;;90.60;37.50;;;;;;;0.08;100.00;100453.34;7397037;19;20342;-64
2023/12/06 02:30:20;;;;;;;80.82;37.22;;;;;;;0.08;100.00;100458.50;7395145;19;20082;-64
2023/12/06 02:32:48;;;;;;;83.93;39.17;;;;;;;0.08;100.00;100456.78;7396801;19;20031;-64
2023/12/06 02:35:22;;;;;;;78.30;35.78;;;;;;;0.08;100.00;100448.19;7395994;19;20031;-64
2023/12/06 02:37:54;;;;;;;79.60;36.83;;;;;;;0.09;100.00;100455.06;7394578;19;20078;-63
2023/12/06 02:40:27;;;;;;;84.72;37.35;;;;;;;0.09;100.00;100444.72;7394905;19;20027;-64
2023/12/06 02:42:55;;;;;;;85.13;38.38;;;;;;;0.09;100.00;100455.06;7396051;19;20410;-64
2023/12/06 02:45:24;;;;;;;79.57;37.75;;;;;;;0.10;100.00;100449.06;7396419;19;20363;-63
2023/12/06 02:47:52;;;;;;;85.03;37.05;;;;;;;0.09;100.00;100444.72;7394692;19;20476;-63
2023/12/06 02:50:21;;;;;;;83.95;37.22;;;;;;;0.09;100.00;100450.78;7396621;19;20018;-64
2023/12/06 02:52:49;;;;;;;77.05;36.13;;;;;;;0.09;100.00;100445.63;7396217;19;20019;-63
2023/12/06 02:55:18;;;;;;;83.38;38.05;;;;;;;0.10;100.00;100441.31;7395058;19;20421;-62
2023/12/06 02:57:49;;;;;;;86.40;38.33;;;;;;;0.10;100.00;100446.47;7396077;19;20020;-63
2023/12/06 03:00:18;;;;;;;79.90;37.25;;;;;;;0.10;100.00;100443.91;7396011;19;20367;-62
2023/12/06 03:02:47;;;;;;;84.25;37.05;;;;;;;0.08;100.00;100438.72;7394490;19;20046;-62
2023/12/06 03:05:15;;;;;;;82.65;37.47;;;;;;;0.09;100.00;100435.31;7396302;19;20010;-64
2023/12/06 03:07:44;;;;;;;80.75;39.00;;;;;;;0.09;100.00;100434.41;7394498;19;20081;-63
2023/12/06 03:10:12;;;;;;;90.13;38.45;;;;;;;0.10;100.00;100436.16;7397333;19;20081;-63
2023/12/06 03:12:40;;;;;;;86.88;37.35;;;;;;;0.11;100.00;100432.75;7395280;19;20423;-63
2023/12/06 03:15:12;;;;;;;88.78;39.45;;;;;;;0.10;100.00;100434.47;7392910;19;20015;-64
2023/12/06 03:17:41;;;;;;;93.10;40.38;;;;;;;0.10;100.00;100436.16;7394147;19;20014;-64
2023/12/06 03:20:12;;;;;;;84.70;37.90;;;;;;;0.10;100.00;100431.88;7393522;19;20434;-63
2023/12/06 03:22:40;;;;;;;89.45;40.45;;;;;;;0.08;100.00;100430.97;7395091;19;20409;-64
2023/12/06 03:25:10;;;;;;;79.90;39.42;;;;;;;0.08;100.00;100433.56;7393539;19;20501;-62
2023/12/06 03:27:38;;;;;;;84.40;38.65;;;;;;;0.10;100.00;100431.88;7395489;19;20014;-63
2023/12/06 03:30:08;;;;;;;88.07;38.25;;;;;;;0.09;100.00;100435.31;7395524;19;20018;-63
2023/12/06 03:32:39;;;;;;;82.05;36.78;;;;;;;0.09;100.00;100432.72;7394856;19;20074;-63
2023/12/06 03:35:09;;;;;;;87.00;39.08;;;;;;;0.10;100.00;100436.16;7393140;19;20489;-64
2023/12/06 03:37:37;;;;;;;86.00;38.97;;;;;;;0.10;100.00;100431.88;7393716;19;20493;-63
2023/12/06 03:40:07;;;;;;;86.32;39.65;;;;;;;0.10;100.00;100436.16;7393115;19;20374;-63
2023/12/06 03:42:36;;;;;;;90.03;40.10;;;;;;;0.10;100.00;100434.47;7394847;19;20086;-64
2023/12/06 03:45:05;;;;;;;90.95;39.00;;;;;;;0.09;100.00;100435.31;7393257;19;20078;-64
2023/12/06 03:47:33;;;;;;;90.75;39.90;;;;;;;0.10;100.00;100437.03;7394594;19;20023;-64
2023/12/06 03:50:05;;;;;;;86.10;38.40;;;;;;;0.10;100.00;100437.03;7394954;19;20078;-64
2023/12/06 03:52:33;;;;;;;84.57;39.75;;;;;;;0.11;100.00;100440.47;7394324;19;20013;-64
2023/12/06 03:55:02;;;;;;;95.40;41.25;;;;;;;0.10;100.00;100434.47;7392879;19;20027;-64
2023/12/06 03:57:30;;;;;;;94.35;40.25;;;;;;;0.11;100.00;100432.75;7394659;19;20018;-64
2023/12/06 03:59:59;;;;;;;86.32;39.25;;;;;;;0.11;100.00;100425.84;7392835;19;20019;-64
2023/12/06 04:02:27;;;;;;;94.13;40.85;;;;;;;0.13;100.00;100437.09;7394120;19;20010;-64
2023/12/06 04:04:56;;;;;;;89.28;39.78;;;;;;;0.12;100.00;100430.19;7394582;19;20018;-64
2023/12/06 04:07:27;;;;;;;95.53;40.92;;;;;;;0.14;100.00;100435.38;7393993;19;20011;-64
2023/12/06 04:10:03;;;;;;;96.97;41.78;;;;;;;0.14;100.00;100436.25;7394227;19;20014;-63
2023/12/06 04:12:31;;;;;;;96.65;40.65;;;;;;;0.14;100.00;100433.66;7393586;19;20200;-63
2023/12/06 04:15:00;;;;;;;93.00;41.83;;;;;;;0.15;100.00;100437.09;7393461;19;20075;-63
2023/12/06 04:17:28;;;;;;;89.93;39.65;;;;;;;0.15;100.00;100434.53;7393949;19;20391;-63
2023/12/06 04:19:57;;;;;;;92.82;41.28;;;;;;;0.18;100.00;100441.44;7395567;19;20018;-64
2023/12/06 04:22:28;;;;;;;90.13;39.75;;;;;;;0.18;100.00;100438.84;7394336;19;20028;-63
2023/12/06 04:24:57;;;;;;;88.43;39.22;;;;;;;0.19;100.00;100438.03;7396972;19;20077;-64
2023/12/06 04:27:25;;;;;;;90.85;41.20;;;;;;;0.20;100.00;100434.59;7401395;19;20074;-64
2023/12/06 04:29:54;;;;;;;91.38;41.67;;;;;;;0.21;100.00;100441.50;7401330;19;20070;-64
2023/12/06 04:32:22;;;;;;;86.40;39.70;;;;;;;0.21;100.00;100441.50;7401267;19;20081;-64
2023/12/06 04:34:55;;;;;;;83.32;39.80;;;;;;;0.21;100.00;100441.50;7398272;19;20090;-63
2023/12/06 04:37:24;;;;;;;91.60;39.88;;;;;;;0.21;100.00;100436.34;7399559;19;20018;-64
2023/12/06 04:39:55;;;;;;;84.97;38.47;;;;;;;0.22;100.00;100443.25;7400964;19;20015;-64
2023/12/06 04:42:24;;;;;;;85.28;38.67;;;;;;;0.21;100.00;100439.78;7401291;19;20014;-64
2023/12/06 04:44:52;;;;;;;89.95;39.83;;;;;;;0.22;100.00;100435.50;7397806;19;20019;-63
2023/12/06 04:47:21;;;;;;;92.97;40.08;;;;;;;0.22;100.00;100448.41;7400344;19;20024;-64
2023/12/06 04:49:49;;;;;;;87.10;41.03;;;;;;;0.21;100.00;100447.53;7398215;19;20106;-64
2023/12/06 04:52:18;;;;;;;93.43;40.17;;;;;;;0.22;100.00;100440.66;7400458;19;20073;-64
2023/12/06 04:54:46;;;;;;;82.70;40.30;;;;;;;0.21;100.00;100436.34;7397281;19;20011;-64
2023/12/06 04:57:17;;;;;;;90.05;42.47;;;;;;;0.21;100.00;100444.09;7400451;19;20018;-65
2023/12/06 04:59:46;;;;;;;91.10;40.20;;;;;;;0.20;100.00;100443.19;7400311;19;20032;-64
2023/12/06 05:02:14;;;;;;;92.60;41.10;;;;;;;0.19;100.00;100440.59;7397275;19;20011;-64
2023/12/06 05:04:43;;;;;;;92.95;41.85;;;;;;;0.20;100.00;100447.50;7397326;19;20126;-64
2023/12/06 05:07:11;;;;;;;90.40;41.47;;;;;;;0.20;100.00;100447.50;7397148;19;20010;-64
2023/12/06 05:09:40;;;;;;;89.70;41.42;;;;;;;0.20;100.00;100444.91;7397418;19;20011;-64
2023/12/06 05:12:08;;;;;;;96.85;42.00;;;;;;;0.19;100.00;100438.91;7397315;19;20006;-64
2023/12/06 05:14:40;;;;;;;92.95;41.58;;;;;;;0.20;100.00;100444.91;7396811;19;20018;-65
2023/12/06 05:17:08;;;;;;;94.25;42.70;;;;;;;0.20;100.00;100445.78;7397397;19;20035;-64
2023/12/06 05:19:36;;;;;;;94.45;41.63;;;;;;;0.21;100.00;100436.34;7399606;19;20014;-64
2023/12/06 05:22:11;;;;;;;85.60;41.33;;;;;;;0.21;100.00;100438.94;7399636;19;20087;-64
2023/12/06 05:24:40;;;;;;;88.28;38.80;;;;;;;0.21;100.00;100438.94;7396769;19;20397;-64
2023/12/06 05:27:08;;;;;;;102.82;45.40;;;;;;;0.21;100.00;100437.19;7398705;19;20011;-64
2023/12/06 05:29:39;;;;;;;92.78;42.42;;;;;;;0.20;100.00;100443.19;7399165;19;20077;-64
2023/12/06 05:32:08;;;;;;;93.57;42.65;;;;;;;0.21;100.00;100441.50;7397226;19;20070;-64
2023/12/06 05:34:37;;;;;;;96.38;40.90;;;;;;;0.21;100.00;100449.25;7396507;19;20031;-64
2023/12/06 05:37:06;;;;;;;86.60;40.45;;;;;;;0.22;100.00;100449.25;7394730;19;20018;-64
2023/12/06 05:39:36;;;;;;;92.90;40.17;;;;;;;0.21;100.00;100452.69;7398557;19;20014;-64
2023/12/06 05:42:05;;;;;;;95.47;40.13;;;;;;;0.21;100.00;100450.09;7398723;19;20025;-64
2023/12/06 05:44:34;;;;;;;94.60;41.30;;;;;;;0.21;100.00;100449.25;7396312;19;20018;-64
2023/12/06 05:47:05;;;;;;;96.25;42.10;;;;;;;0.21;100.00;100451.81;7398391;19;20023;-64
2023/12/06 05:49:33;;;;;;;91.93;41.60;;;;;;;0.21;100.00;100454.41;7398866;19;20021;-64
2023/12/06 05:52:02;;;;;;;90.90;42.72;;;;;;;0.21;100.00;100449.25;7398345;19;20011;-64
2023/12/06 05:54:30;;;;;;;94.88;41.78;;;;;;;0.21;100.00;100455.25;7395704;19;20445;-64
2023/12/06 05:56:59;;;;;;;94.38;41.40;;;;;;;0.22;100.00;100453.56;7395561;19;20011;-64
2023/12/06 05:59:27;;;;;;;94.05;42.70;;;;;;;0.22;100.00;100458.72;7395249;19;20388;-64
2023/12/06 06:01:56;;;;;;;93.13;41.13;;;;;;;0.21;100.00;100450.09;7396578;19;20078;-65
2023/12/06 06:04:27;;;;;;;101.85;43.47;;;;;;;0.21;100.00;100455.25;7395598;19;20078;-65
2023/12/06 06:06:55;;;;;;;91.40;43.83;;;;;;;0.21;100.00;100446.66;7396482;19;20378;-65
2023/12/06 06:09:24;;;;;;;98.72;42.08;;;;;;;0.23;100.00;100455.28;7397585;19;20022;-65
2023/12/06 06:11:52;;;;;;;118.95;51.83;;;;;;;0.22;100.00;100445.81;7397826;19;20015;-64
2023/12/06 06:14:20;;;;;;;94.40;43.70;;;;;;;0.23;100.00;100448.44;7395370;19;20074;-65
2023/12/06 06:16:50;;;;;;;97.78;43.70;;;;;;;0.23;100.00;100447.53;7395205;19;20031;-65
2023/12/06 06:19:18;;;;;;;93.00;44.58;;;;;;;0.24;100.00;100454.44;7397451;19;20010;-65
2023/12/06 06:21:49;;;;;;;97.57;43.50;;;;;;;0.22;100.00;100453.56;7396533;19;20011;-65
2023/12/06 06:24:18;;;;;;;92.30;42.08;;;;;;;0.23;100.00;100457.84;7394404;19;20015;-63
2023/12/06 06:26:46;;;;;;;107.15;45.35;;;;;;;0.22;100.00;100459.59;7394757;19;20010;-64
2023/12/06 06:29:15;;;;;;;91.53;41.78;;;;;;;0.24;100.00;100459.59;7396879;19;20512;-64
2023/12/06 06:31:43;;;;;;;99.45;45.10;;;;;;;0.24;100.00;100464.75;7395349;19;20508;-64
2023/12/06 06:34:12;;;;;;;93.80;44.00;;;;;;;0.25;100.00;100469.09;7394469;19;20011;-64
2023/12/06 06:36:40;;;;;;;96.97;43.55;;;;;;;0.24;100.00;100465.66;7395866;19;20094;-64
2023/12/06 06:39:12;;;;;;;97.78;43.35;;;;;;;0.25;100.00;100462.22;7399315;19;20024;-63
2023/12/06 06:41:41;;;;;;;98.22;42.47;;;;;;;0.25;100.00;100469.97;7397260;19;20025;-65
2023/12/06 06:44:09;;;;;;;91.97;43.40;;;;;;;0.26;100.00;100463.09;7394940;19;20039;-64
2023/12/06 06:46:38;;;;;;;93.50;42.50;;;;;;;0.26;100.00;100474.25;7396327;19;20077;-64
2023/12/06 06:49:06;;;;;;;99.32;43.70;;;;;;;0.27;100.00;100470.00;7393593;19;20524;-64
2023/12/06 06:51:35;;;;;;;97.45;43.22;;;;;;;0.26;100.00;100473.41;7395893;19;20014;-64
2023/12/06 06:54:04;;;;;;;91.78;42.95;;;;;;;0.27;100.00;100478.59;7394520;19;20021;-64
2023/12/06 06:56:35;;;;;;;99.00;42.45;;;;;;;0.29;100.00;100473.44;7394974;19;20489;-64
2023/12/06 06:59:04;;;;;;;96.43;42.55;;;;;;;0.29;100.00;100476.91;7396628;19;20010;-64
2023/12/06 07:01:32;;;;;;;94.53;42.90;;;;;;;0.29;100.00;100478.59;7396198;19;20031;-64
2023/12/06 07:04:07;;;;;;;94.28;43.58;;;;;;;0.29;100.00;100479.50;7394287;19;20043;-64
2023/12/06 07:06:35;;;;;;;94.18;43.65;;;;;;;0.29;100.00;100481.19;7394604;19;20027;-63
2023/12/06 07:09:04;;;;;;;97.47;44.70;;;;;;;0.29;100.00;100487.22;7395890;19;20069;-64
2023/12/06 07:11:35;;;;;;;94.63;44.78;;;;;;;0.30;100.00;100490.66;7396188;19;20119;-64
2023/12/06 07:14:04;;;;;;;98.80;44.28;;;;;;;0.30;100.00;100498.41;7393994;19;20480;-64
2023/12/06 07:16:32;;;;;;;96.25;43.60;;;;;;;0.30;100.00;100493.25;7394422;19;20031;-64
2023/12/06 07:19:00;;;;;;;97.85;44.40;;;;;;;0.30;100.00;100495.81;7393703;19;20069;-64
2023/12/06 07:21:29;;;;;;;100.05;45.45;;;;;;;0.30;100.00;100496.72;7394756;19;20028;-63
2023/12/06 07:23:58;;;;;;;103.00;45.17;;;;;;;0.31;100.00;100500.16;7393352;19;20025;-64
2023/12/06 07:26:26;;;;;;;97.05;46.80;;;;;;;0.31;100.00;100508.75;7394178;19;20368;-64
2023/12/06 07:28:57;;;;;;;91.45;43.40;;;;;;;0.33;100.00;100506.22;7394799;19;20027;-64
2023/12/06 07:31:26;;;;;;;102.38;48.13;;;;;;;0.34;100.00;100513.09;7393395;19;20010;-64
2023/12/06 07:33:54;;;;;;;102.50;45.15;;;;;;;0.34;100.00;100515.69;7393005;19;20473;-65
2023/12/06 07:36:30;;;;;;;100.05;44.45;;;;;;;0.35;100.00;100514.84;7393799;19;20015;-65
2023/12/06 07:38:58;;;;;;;96.22;44.83;;;;;;;0.36;100.00;100518.31;7395125;19;20090;-65
2023/12/06 07:41:27;;;;;;;98.35;42.70;;;;;;;0.36;100.00;100511.41;7394487;19;20041;-65
2023/12/06 07:43:58;;;;;;;95.00;44.60;;;;;;;0.38;100.00;100521.75;7393571;19;20078;-65
2023/12/06 07:46:26;;;;;;;93.03;43.70;;;;;;;0.39;100.00;100515.75;7394956;19;20031;-65
2023/12/06 07:48:55;;;;;;;98.13;45.17;;;;;;;0.39;100.00;100515.75;7394474;19;20019;-66
2023/12/06 07:51:23;;;;;;;100.60;47.03;;;;;;;0.40;100.00;100518.34;7394040;19;20469;-65
2023/12/06 07:53:52;;;;;;;93.10;44.85;;;;;;;0.40;100.00;100518.34;7393252;19;20011;-65
2023/12/06 07:56:20;;;;;;;101.47;46.58;;;;;;;0.42;100.00;100529.59;7393111;19;20327;-65
2023/12/06 07:58:51;;;;;;;89.45;41.30;;;;;;;0.45;100.00;100533.94;7393886;19;20074;-65
2023/12/06 08:01:22;;;;;;;102.13;47.17;;;;;;;0.48;100.00;100529.69;7401216;19;20021;-65
2023/12/06 08:03:50;;;;;;;102.85;45.80;;;;;;;0.55;100.00;100533.22;7399667;19;20093;-64
2023/12/06 08:06:19;;;;;;;105.90;47.40;;;;;;;0.62;100.00;100534.19;7401701;19;20027;-68
2023/12/06 08:08:50;;;;;;;96.13;45.03;;;;;;;0.65;100.00;100534.25;7398626;19;20007;-67
2023/12/06 08:11:18;;;;;;;96.38;43.75;;;;;;;0.66;100.00;100538.56;7401166;19;20032;-68
2023/12/06 08:13:47;;;;;;;98.43;45.80;;;;;;;0.67;100.00;100537.72;7399435;19;20031;-67
2023/12/06 08:16:16;;;;;;;98.75;48.60;;;;;;;0.67;100.00;100542.00;7400223;19;20342;-70
2023/12/06 08:18:47;;;;;;;86.07;42.10;;;;;;;0.67;100.00;100545.47;7401302;19;20548;-67
2023/12/06 08:21:15;;;;;;;91.93;43.42;;;;;;;0.68;100.00;100548.91;7401455;19;20031;-67
2023/12/06 08:23:43;;;;;;;96.50;45.92;;;;;;;0.68;100.00;100541.16;7399205;19;20015;-67
2023/12/06 08:26:12;;;;;;;91.00;42.30;;;;;;;0.69;100.00;100548.06;7400760;19;20019;-66
2023/12/06 08:28:41;;;;;;;90.25;45.08;;;;;;;0.69;100.00;100545.50;7400527;19;20495;-68
2023/12/06 08:31:32;;;;;;;83.68;42.00;;;;;;;0.67;100.00;100542.91;7401237;19;20014;-68
2023/12/06 08:34:03;;;;;;;87.18;42.65;;;;;;;0.68;100.00;100552.34;7399216;19;20021;-68
2023/12/06 08:36:45;;;;;;;89.22;43.15;;;;;;;0.69;100.00;100546.34;7400244;19;20018;-68
2023/12/06 08:39:15;;;;;;;83.85;41.95;;;;;;;0.69;100.00;100548.94;7400643;19;20458;-68
2023/12/06 08:41:43;;;;;;;81.90;42.42;;;;;;;0.70;100.00;100542.94;7401208;19;20086;-68
2023/12/06 08:44:12;;;;;;;83.20;40.83;;;;;;;0.71;100.00;100544.66;7398334;19;20493;-68
2023/12/06 08:46:42;;;;;;;89.35;42.63;;;;;;;0.72;100.00;100553.28;7400434;19;20078;-68
2023/12/06 08:49:13;;;;;;;88.18;43.50;;;;;;;0.71;100.00;100548.94;7400743;19;20043;-66
2023/12/06 08:51:42;;;;;;;80.43;41.13;;;;;;;0.71;100.00;100552.41;7398700;19;20025;-67
2023/12/06 08:54:11;;;;;;;81.28;40.65;;;;;;;0.72;100.00;100548.13;7397711;19;20014;-68
2023/12/06 08:56:40;;;;;;;84.63;42.85;;;;;;;0.72;100.00;100546.41;7402729;19;20021;-68
2023/12/06 08:59:08;;;;;;;88.72;43.40;;;;;;;0.73;100.00;100553.28;7400023;19;20383;-67
2023/12/06 09:01:37;;;;;;;90.47;46.45;;;;;;;0.74;100.00;100549.88;7397279;19;20011;-68
2023/12/06 09:04:06;;;;;;;92.82;45.83;;;;;;;0.75;100.00;100556.78;7397676;19;20017;-68
2023/12/06 09:06:37;;;;;;;91.82;46.63;;;;;;;0.76;100.00;100553.34;7399898;19;20011;-68
2023/12/06 09:09:06;;;;;;;87.80;42.25;;;;;;;0.78;100.00;100556.84;7396730;19;20498;-68
2023/12/06 09:11:35;;;;;;;90.13;44.92;;;;;;;0.81;100.00;100556.03;7397693;19;20013;-68
2023/12/06 09:14:04;;;;;;;80.80;41.40;;;;;;;0.83;100.00;100561.19;7397434;19;20102;-68
2023/12/06 09:16:32;;;;;;;81.78;42.08;;;;;;;0.83;100.00;100561.19;7398920;19;20070;-68
2023/12/06 09:19:01;;;;;;;80.00;40.45;;;;;;;0.84;100.00;100566.38;7399478;19;20015;-68
2023/12/06 09:21:29;;;;;;;86.05;42.17;;;;;;;0.85;100.00;100570.72;7396856;19;20018;-68
2023/12/06 09:24:00;;;;;;;77.32;40.63;;;;;;;0.87;100.00;100575.91;7397721;19;20036;-68
2023/12/06 09:26:29;;;;;;;75.38;37.75;;;;;;;0.88;100.00;100575.91;7396951;19;20082;-68
2023/12/06 09:28:57;;;;;;;81.50;39.47;;;;;;;0.89;100.00;100580.22;7398816;19;20010;-68
2023/12/06 09:31:32;;;;;;;74.28;38.30;;;;;;;0.92;100.00;100579.41;7399045;19;20086;-68
2023/12/06 09:34:01;;;;;;;83.68;39.30;;;;;;;0.98;100.00;100582.09;7397339;19;20364;-68
2023/12/06 09:36:29;;;;;;;81.63;40.78;;;;;;;1.01;100.00;100578.69;7398510;19;20082;-68
2023/12/06 09:39:04;;;;;;;82.10;42.08;;;;;;;1.05;100.00;100583.94;7396679;19;20021;-68
2023/12/06 09:41:34;;;;;;;82.40;42.03;;;;;;;1.08;100.00;100581.38;7399055;19;20074;-68
2023/12/06 09:44:03;;;;;;;74.53;37.35;;;;;;;1.10;100.00;100586.56;7396515;19;20498;-68
2023/12/06 09:46:32;;;;;;;73.50;38.30;;;;;;;1.09;100.00;100580.53;7398106;19;20367;-68
2023/12/06 09:49:00;;;;;;;74.68;40.10;;;;;;;1.10;100.00;100583.97;7397941;19;20024;-68
2023/12/06 09:51:29;;;;;;;73.90;37.00;;;;;;;1.09;100.00;100587.44;7395507;19;20355;-68
2023/12/06 09:54:01;;;;;;;78.80;39.42;;;;;;;1.10;100.00;100584.88;7396280;19;20371;-68
2023/12/06 09:56:29;;;;;;;74.18;38.45;;;;;;;1.11;100.00;100586.59;7397287;19;20011;-68
2023/12/06 09:58:58;;;;;;;77.95;40.17;;;;;;;1.13;100.00;100586.63;7397770;19;20493;-67
2023/12/06 10:01:26;;;;;;;72.53;39.00;;;;;;;1.14;100.00;100588.38;7397321;19;20070;-68
2023/12/06 10:03:55;;;;;;;77.18;39.13;;;;;;;1.14;100.00;100583.19;7396494;19;20078;-68
2023/12/06 10:06:23;;;;;;;75.32;39.13;;;;;;;1.14;100.00;100581.47;7397452;19;20006;-68
2023/12/06 10:08:58;;;;;;;72.05;36.47;;;;;;;1.18;100.00;100584.13;7397234;19;20010;-68
2023/12/06 10:11:29;;;;;;;71.72;37.35;;;;;;;1.19;100.00;100578.06;7397769;19;20006;-68
2023/12/06 10:13:57;;;;;;;76.85;37.60;;;;;;;1.19;100.00;100584.13;7396335;19;20076;-71
2023/12/06 10:16:26;;;;;;;67.63;34.92;;;;;;;1.20;100.00;100580.69;7397104;19;20018;-67
2023/12/06 10:18:55;;;;;;;66.25;35.22;;;;;;;1.21;100.00;100582.41;7397519;19;20011;-68
2023/12/06 10:21:24;;;;;;;75.88;38.55;;;;;;;1.23;100.00;100582.47;7396972;19;20484;-67
2023/12/06 10:23:58;;;;;;;73.40;38.08;;;;;;;1.25;100.00;100591.09;7394934;19;20098;-68
2023/12/06 10:26:31;;;;;;;71.95;36.83;;;;;;;1.25;100.00;100586.78;7396865;19;20032;-68
2023/12/06 10:29:00;;;;;;;74.38;37.53;;;;;;;1.25;100.00;100584.22;7397001;19;20477;-68
2023/12/06 10:31:29;;;;;;;70.47;36.95;;;;;;;1.25;100.00;100585.91;7397403;19;20010;-68
2023/12/06 10:33:59;;;;;;;74.88;38.20;;;;;;;1.24;100.00;100586.75;7395949;19;20074;-68
2023/12/06 10:36:28;;;;;;;71.88;35.75;;;;;;;1.24;100.00;100576.41;7396956;19;20085;-68
2023/12/06 10:38:57;;;;;;;74.32;36.58;;;;;;;1.24;100.00;100576.41;7394753;19;20021;-68
2023/12/06 10:41:28;;;;;;;67.07;35.67;;;;;;;1.23;100.00;100579.88;7396412;19;20011;-68
2023/12/06 10:44:02;;;;;;;73.28;37.78;;;;;;;1.24;100.00;100573.81;7395534;19;20014;-67
2023/12/06 10:46:32;;;;;;;69.85;35.78;;;;;;;1.22;100.00;100576.41;7396641;19;20031;-67
2023/12/06 10:49:03;;;;;;;69.38;37.20;;;;;;;1.23;100.00;100572.13;7396655;19;20083;-67
2023/12/06 10:51:32;;;;;;;70.20;36.25;;;;;;;1.23;100.00;100574.69;7396664;19;20014;-68
2023/12/06 10:54:02;;;;;;;73.60;36.03;;;;;;;1.23;100.00;100569.53;7394685;19;20367;-67
2023/12/06 10:56:39;;;;;;;73.72;37.10;;;;;;;1.24;100.00;100579.00;7396331;19;20014;-67
2023/12/06 10:59:12;;;;;;;76.07;37.03;;;;;;;1.25;100.00;100579.03;7396800;19;20015;-68
2023/12/06 11:01:41;;;;;;;68.20;37.05;;;;;;;1.25;100.00;100570.41;7395610;19;20070;-68
2023/12/06 11:04:11;;;;;;;71.85;36.63;;;;;;;1.25;100.00;100576.47;7394316;19;20074;-68
2023/12/06 11:06:48;;;;;;;71.80;37.05;;;;;;;1.26;100.00;100574.72;7396024;19;20023;-68
2023/12/06 11:09:29;;;;;;;73.25;36.90;;;;;;;1.25;100.00;100567.81;7396231;19;20070;-67
2023/12/06 11:12:09;;;;;;;69.60;36.97;;;;;;;1.26;100.00;100564.38;7395871;19;20070;-68
2023/12/06 11:14:58;;;;;;;71.25;36.45;;;;;;;1.26;100.00;100569.56;7394698;19;20027;-68
2023/12/06 11:17:39;;;;;;;72.43;35.83;;;;;;;1.26;100.00;100572.16;7396315;19;20025;-68
2023/12/06 11:20:10;;;;;;;71.25;36.53;;;;;;;1.25;100.00;100570.41;7393523;19;20502;-68